Ana Sayfa
METAR-TAF:

METAR-TAF

Havaalanları :

Aden, Yemen

Enlem: 12-40N, Boylam: 045-02E, yükseklik: 3 m

Güncel hava durumu gözlemi

Rapor saat 23:00 UTC de 31 dakika önce yapıldı.
Rüzgar doğudan 6 kt
Sıcaklık 32°C
Nem 71%
Basınç 1006 hPa
Görüş mesafesi 10 km veya daha fazla
1800 ft yükseklikte az bulutlu
10000 ft yükseklikte parçalı bulutlu

METAR: OYAA 212300Z 10006KT 9999 FEW018 SCT100 32/26 Q1006 NOSIG

Saat: 02:31 (23:31 UTC)


TAF: eksik

4.000'den fazla havaalanı için hava durumu gözlemleri ve tahminleri (METAR ve TAF raporları).

Kullanılabilir istasyonlar harita üzerinde sarı ve kırmızı noktalarla gösterilir.

İstasyonun adını görmek için fareyi noktanın üzerinde gezdirin.

Sonrasında hava gözlem ve tahminlerini görmek için tıklayın.

Haritayı değiştirmek için: yaklaştırmak için siyah artı işaretli yeşil düğmeye ve uzaklaştırmak için de eksi işaretli düğmeye hızla tıklayın; bitişik haritalar için yeşil okları kullanın.


METAR-TAF: